createdAt,value
2022-09-12T00:00:05.686Z,4.70
2022-09-12T00:05:13.970Z,4.45
2022-09-12T00:10:17.558Z,4.80
2022-09-12T00:15:20.008Z,4.55
2022-09-12T00:20:22.345Z,4.13
2022-09-12T00:25:24.740Z,4.57
2022-09-12T00:30:27.338Z,4.30
2022-09-12T00:35:29.714Z,4.20
2022-09-12T00:40:32.130Z,4.70
2022-09-12T00:45:34.868Z,5.07
2022-09-12T00:50:37.474Z,5.00
2022-09-12T00:55:43.868Z,4.40
2022-09-12T01:00:47.650Z,4.95
2022-09-12T01:06:18.248Z,4.65
2022-09-12T01:11:22.029Z,4.47
2022-09-12T01:16:24.438Z,4.82
2022-09-12T01:21:40.343Z,4.53
2022-09-12T01:27:08.506Z,4.65
2022-09-12T01:32:22.918Z,4.43
2022-09-12T01:37:57.578Z,4.65
2022-09-12T01:43:12.289Z,4.53
2022-09-12T01:48:22.813Z,4.15
2022-09-12T01:53:34.311Z,4.70
2022-09-12T01:58:45.850Z,4.90
2022-09-12T02:03:58.412Z,4.47
2022-09-12T02:09:06.673Z,4.97
2022-09-12T02:14:14.201Z,4.85
2022-09-12T02:19:20.108Z,4.18
2022-09-12T02:24:25.820Z,4.28
2022-09-12T02:29:28.327Z,4.10
2022-09-12T02:35:03.325Z,4.65
2022-09-12T02:40:09.043Z,4.18
2022-09-12T02:45:12.615Z,4.45
2022-09-12T02:50:15.236Z,4.45
2022-09-12T02:55:17.984Z,4.78
2022-09-12T03:00:20.725Z,4.38
2022-09-12T03:05:57.142Z,4.35
2022-09-12T03:11:08.411Z,4.45
2022-09-12T03:16:39.986Z,4.57
2022-09-12T03:22:14.029Z,4.45
2022-09-12T03:27:28.465Z,4.70
2022-09-12T03:32:49.673Z,5.03
2022-09-12T03:37:53.168Z,4.80
2022-09-12T03:42:55.651Z,4.63
2022-09-12T03:48:00.794Z,4.45
2022-09-12T03:53:03.574Z,4.50
2022-09-12T03:58:06.014Z,4.72
2022-09-12T04:03:09.262Z,4.75
2022-09-12T04:08:11.583Z,4.22
2022-09-12T04:13:14.017Z,4.15
2022-09-12T04:18:16.439Z,4.22
2022-09-12T04:23:19.529Z,4.65
2022-09-12T04:28:22.361Z,4.72
2022-09-12T04:33:24.825Z,4.45
2022-09-12T04:38:27.409Z,4.40
2022-09-12T04:43:29.824Z,4.43
2022-09-12T04:48:32.263Z,4.05
2022-09-12T04:53:34.798Z,4.35
2022-09-12T04:58:38.350Z,4.93
2022-09-12T05:03:45.354Z,4.35
2022-09-12T05:08:48.351Z,3.40
2022-09-12T05:13:50.929Z,3.63
2022-09-12T05:18:53.906Z,3.75
2022-09-12T05:23:59.627Z,3.70
2022-09-12T05:29:04.673Z,4.68
2022-09-12T05:34:09.330Z,6.50
2022-09-12T05:39:12.110Z,7.10
2022-09-12T05:44:14.818Z,8.73
2022-09-12T05:49:17.372Z,5.07
2022-09-12T05:54:20.800Z,5.10
2022-09-12T05:59:24.214Z,4.70
2022-09-12T06:04:28.090Z,3.30
2022-09-12T06:09:30.586Z,4.07
2022-09-12T06:14:33.366Z,7.87
2022-09-12T06:19:35.774Z,7.10
2022-09-12T06:24:38.405Z,9.07
2022-09-12T06:29:41.946Z,12.17
2022-09-12T06:34:47.350Z,11.20
2022-09-12T06:39:49.752Z,15.20
2022-09-12T06:44:52.243Z,15.73
2022-09-12T06:49:54.785Z,12.68
2022-09-12T06:54:57.229Z,18.08
2022-09-12T07:00:00.122Z,18.88
2022-09-12T07:05:02.651Z,19.20
2022-09-12T07:10:06.851Z,18.52
2022-09-12T07:15:10.763Z,17.13
2022-09-12T07:20:13.359Z,12.30
2022-09-12T07:25:15.749Z,20.08
2022-09-12T07:30:18.431Z,18.58
2022-09-12T07:35:21.659Z,18.77
2022-09-12T07:40:24.088Z,18.85
2022-09-12T07:45:27.035Z,18.48
2022-09-12T07:50:29.615Z,16.85
2022-09-12T07:55:32.929Z,6.43
2022-09-12T08:00:36.490Z,16.88
2022-09-12T08:05:38.878Z,17.70
2022-09-12T08:10:41.353Z,17.40
2022-09-12T08:15:43.731Z,15.45
2022-09-12T08:20:46.099Z,15.90
2022-09-12T08:25:48.590Z,8.23
2022-09-12T08:30:51.312Z,15.88
2022-09-12T08:35:53.756Z,8.77
2022-09-12T08:41:05.299Z,10.43
2022-09-12T08:46:45.289Z,12.95
2022-09-12T08:51:47.853Z,15.20
2022-09-12T08:56:51.332Z,6.38
2022-09-12T09:01:59.974Z,14.90
2022-09-12T09:07:18.451Z,15.95
2022-09-12T09:12:44.134Z,13.77
2022-09-12T09:17:51.922Z,13.38
2022-09-12T09:23:16.165Z,10.23
2022-09-12T09:28:29.873Z,14.70
2022-09-12T09:33:36.018Z,5.85
2022-09-12T09:39:03.641Z,3.25
2022-09-12T09:44:15.015Z,6.10
2022-09-12T09:49:18.246Z,11.13
2022-09-12T09:54:35.566Z,7.95
2022-09-12T09:59:38.019Z,13.88
2022-09-12T10:04:57.849Z,3.08
2022-09-12T10:10:26.623Z,6.13
2022-09-12T10:15:33.757Z,12.95
2022-09-12T10:20:45.417Z,16.40
2022-09-12T10:26:01.555Z,6.50
2022-09-12T10:31:04.434Z,13.85
2022-09-12T10:36:07.011Z,14.45
2022-09-12T10:41:11.408Z,6.00
2022-09-12T10:46:19.642Z,1.83
2022-09-12T10:51:25.117Z,9.02
2022-09-12T10:56:39.483Z,13.00
2022-09-12T11:01:47.260Z,6.70
2022-09-12T11:06:57.648Z,10.23
2022-09-12T11:12:24.308Z,5.80
2022-09-12T11:17:53.862Z,2.25
2022-09-12T11:23:21.101Z,6.28
2022-09-12T11:28:38.641Z,5.75
2022-09-12T11:33:56.668Z,1.55
2022-09-12T11:39:20.697Z,2.97
2022-09-12T11:44:28.846Z,1.65
2022-09-12T11:49:40.597Z,6.03
2022-09-12T11:54:52.929Z,11.90
2022-09-12T12:00:21.371Z,6.03
2022-09-12T12:05:36.127Z,10.52
2022-09-12T12:10:41.791Z,12.93
2022-09-12T12:16:14.520Z,15.13
2022-09-12T12:21:20.059Z,15.52
2022-09-12T12:27:00.540Z,18.27
2022-09-12T12:32:02.856Z,16.38
2022-09-12T12:37:23.060Z,15.70
2022-09-12T12:42:34.530Z,17.05
2022-09-12T12:47:39.930Z,15.68
2022-09-12T12:52:45.306Z,16.65
2022-09-12T12:57:50.976Z,14.52
2022-09-12T13:03:06.674Z,15.27
2022-09-12T13:08:11.280Z,13.07
2022-09-12T13:13:25.075Z,15.48
2022-09-12T13:18:49.129Z,14.43
2022-09-12T13:24:04.255Z,13.13
2022-09-12T13:29:10.803Z,9.35
2022-09-12T13:34:22.636Z,11.65
2022-09-12T13:39:27.596Z,4.07
2022-09-12T13:44:32.917Z,5.53
2022-09-12T13:49:40.090Z,11.05
2022-09-12T13:54:45.414Z,1.77
2022-09-12T13:59:47.750Z,4.13
2022-09-12T14:05:11.438Z,4.32
2022-09-12T14:10:20.830Z,6.65
2022-09-12T14:15:30.232Z,6.40
2022-09-12T14:20:37.232Z,7.40
2022-09-12T14:25:41.456Z,7.80
2022-09-12T14:30:58.675Z,9.00
2022-09-12T14:36:18.515Z,5.35
2022-09-12T14:41:26.135Z,8.38
2022-09-12T14:46:28.601Z,8.85
2022-09-12T14:51:38.313Z,2.55
2022-09-12T14:56:53.833Z,2.70
2022-09-12T15:02:20.489Z,1.63
2022-09-12T15:07:28.704Z,3.15
2022-09-12T15:12:31.237Z,4.60
2022-09-12T15:17:33.568Z,4.88
2022-09-12T15:22:37.725Z,1.90
2022-09-12T15:27:43.309Z,2.63
2022-09-12T15:32:46.343Z,3.75
2022-09-12T15:37:49.825Z,1.83
2022-09-12T15:42:52.748Z,4.78
2022-09-12T15:47:55.729Z,1.88
2022-09-12T15:52:58.805Z,1.73
2022-09-12T15:58:06.273Z,1.55
2022-09-12T16:21:46.710Z,5.90
2022-09-12T16:26:49.234Z,6.68
2022-09-12T16:31:51.897Z,6.00
2022-09-12T16:36:54.306Z,6.47
2022-09-12T16:41:56.722Z,4.05
2022-09-12T16:47:00.337Z,6.60
2022-09-12T16:52:03.193Z,7.25
2022-09-12T16:57:06.609Z,8.20
2022-09-12T17:02:13.705Z,8.32
2022-09-12T17:07:16.420Z,8.30
2022-09-12T17:12:18.916Z,7.70
2022-09-12T17:17:21.348Z,7.97
2022-09-12T17:22:23.773Z,8.30
2022-09-12T17:27:26.520Z,7.47
2022-09-12T17:32:29.546Z,7.45
2022-09-12T17:37:32.574Z,8.15
2022-09-12T17:42:36.574Z,8.75
2022-09-12T17:47:40.291Z,8.27
2022-09-12T17:52:43.069Z,9.02
2022-09-12T17:57:45.923Z,8.70
2022-09-12T18:02:50.114Z,8.48
2022-09-12T18:07:52.947Z,9.65
2022-09-12T18:12:55.664Z,8.88
2022-09-12T18:17:58.505Z,8.25
2022-09-12T18:23:01.554Z,8.98
2022-09-12T18:28:09.018Z,7.93
2022-09-12T18:33:11.956Z,8.95
2022-09-12T18:38:14.768Z,8.30
2022-09-12T18:43:17.482Z,8.55
2022-09-12T18:48:20.047Z,9.88
2022-09-12T18:53:22.806Z,8.88
2022-09-12T18:58:25.588Z,8.63
2022-09-12T19:03:28.395Z,9.25
2022-09-12T19:08:31.231Z,8.48
2022-09-12T19:13:37.253Z,9.50
2022-09-12T19:18:40.654Z,7.97
2022-09-12T19:23:43.568Z,9.00
2022-09-12T19:28:46.998Z,8.85
2022-09-12T19:33:50.385Z,8.32
2022-09-12T19:38:53.199Z,8.48
2022-09-12T19:43:56.655Z,9.15
2022-09-12T19:48:59.151Z,8.77
2022-09-12T19:54:01.661Z,8.88
2022-09-12T19:59:04.283Z,7.47
2022-09-12T20:04:06.945Z,7.90
2022-09-12T20:09:09.423Z,9.30
2022-09-12T20:14:11.755Z,7.80
2022-09-12T20:19:14.229Z,8.02
2022-09-12T20:24:16.655Z,8.80
2022-09-12T20:29:19.026Z,8.10
2022-09-12T20:34:21.726Z,8.77
2022-09-12T20:39:24.493Z,8.35
2022-09-12T20:44:27.632Z,8.00
2022-09-12T20:49:30.093Z,8.57
2022-09-12T20:54:32.580Z,8.20
2022-09-12T20:59:35.286Z,8.05
2022-09-12T21:04:37.774Z,8.25
2022-09-12T21:09:40.126Z,8.55
2022-09-12T21:14:42.495Z,7.97
2022-09-12T21:19:45.111Z,8.15
2022-09-12T21:24:47.812Z,8.90
2022-09-12T21:29:50.606Z,8.73
2022-09-12T21:34:52.958Z,8.13
2022-09-12T21:39:55.389Z,8.05
2022-09-12T21:44:57.830Z,9.43
2022-09-12T21:50:00.275Z,8.25
2022-09-12T21:55:07.214Z,8.52
2022-09-12T22:00:15.755Z,8.27
2022-09-12T22:05:21.349Z,9.40
2022-09-12T22:10:23.790Z,8.52
2022-09-12T22:15:41.636Z,8.38
2022-09-12T22:20:44.088Z,8.65
2022-09-12T22:25:47.091Z,8.15
2022-09-12T22:30:49.622Z,8.15
2022-09-12T22:35:52.114Z,8.93
2022-09-12T22:40:54.511Z,7.53
2022-09-12T22:45:56.954Z,8.30
2022-09-12T22:50:59.871Z,8.10
2022-09-12T22:56:02.754Z,8.10
2022-09-12T23:01:06.365Z,8.25
2022-09-12T23:06:10.078Z,8.07
2022-09-12T23:11:14.873Z,7.85
2022-09-12T23:16:23.002Z,7.90
2022-09-12T23:21:25.468Z,7.28
2022-09-12T23:26:28.419Z,7.70
2022-09-12T23:31:32.522Z,8.27
2022-09-12T23:36:35.072Z,7.75
2022-09-12T23:41:38.184Z,7.88
2022-09-12T23:46:40.565Z,7.78
2022-09-12T23:51:42.986Z,7.65
2022-09-12T23:56:46.134Z,8.55
